Time;durP1;ratioP1;P1;durP2;ratioP2;P2;SDS_P1;SDS_P2;PMS_P1;PMS_P2;Temp;Humidity;BMP_temperature;BMP_pressure;BME280_temperature;BME280_humidity;BME280_pressure;Samples;Min_cycle;Max_cycle;Signal;HPM_P1;HPM_P2
2023/05/09 00:01:16;;;;;;;;;;;;;;;26.59;34.18;101285.50;5075804;28;1969;-20
2023/05/09 00:03:42;;;;;;;;;;;;;;;26.61;34.36;101297.00;5075189;28;1102;-20
2023/05/09 00:06:07;;;;;;;;;;;;;;;26.55;34.28;101286.84;5086903;28;1161;-20
2023/05/09 00:08:33;;;;;;;;;;;;;;;26.57;34.38;101291.06;5077850;28;1133;-20
2023/05/09 00:10:59;;;;;;;;;;;;;;;26.46;34.60;101283.31;5073807;28;846;-20
2023/05/09 00:13:24;;;;;;;;;;;;;;;26.49;34.35;101282.97;5075712;28;1071;-20
2023/05/09 00:15:53;;;;;;;;;;;;;;;26.60;34.23;101285.34;5086229;28;1186;-21
2023/05/09 00:18:21;;;;;;;;;;;;;;;26.53;34.60;101273.50;5095896;28;1111;-20
2023/05/09 00:20:46;;;;;;;;;;;;;;;26.50;34.49;101274.69;5095380;28;1038;-20
2023/05/09 00:23:12;;;;;;;;;;;;;;;26.58;34.76;101279.25;5085547;28;1967;-20
2023/05/09 00:25:37;;;;;;;;;;;;;;;26.64;34.41;101275.88;5086263;28;1062;-20
2023/05/09 00:28:03;;;;;;;;;;;;;;;26.48;34.66;101286.66;5077984;28;1197;-20
2023/05/09 00:30:29;;;;;;;;;;;;;;;26.66;34.70;101289.22;5075192;28;1054;-20
2023/05/09 00:32:55;;;;;;;;;;;;;;;26.44;34.97;101299.66;5078419;28;1115;-20
2023/05/09 00:35:20;;;;;;;;;;;;;;;26.56;34.68;101302.84;5081433;28;932;-20
2023/05/09 00:37:46;;;;;;;;;;;;;;;26.61;34.39;101303.19;5078816;28;1162;-20
2023/05/09 00:40:12;;;;;;;;;;;;;;;26.47;34.64;101307.41;5088163;28;1193;-20
2023/05/09 00:42:38;;;;;;;;;;;;;;;26.52;34.66;101301.50;5078810;28;1913;-20
2023/05/09 00:45:04;;;;;;;;;;;;;;;26.55;34.83;101314.66;5090142;28;1027;-20
2023/05/09 00:47:29;;;;;;;;;;;;;;;26.46;34.79;101311.09;5071822;28;1146;-20
2023/05/09 00:49:55;;;;;;;;;;;;;;;26.34;34.72;101309.72;5090055;28;1026;-20
2023/05/09 00:52:24;;;;;;;;;;;;;;;26.49;34.76;101318.03;5081247;28;1101;-20
2023/05/09 00:54:53;;;;;;;;;;;;;;;26.31;34.93;101315.44;5073160;28;1126;-20
2023/05/09 00:57:19;;;;;;;;;;;;;;;26.37;34.76;101312.94;5061755;28;1053;-20
2023/05/09 00:59:44;;;;;;;;;;;;;;;26.44;34.67;101312.28;5078382;28;944;-20
2023/05/09 01:02:10;;;;;;;;;;;;;;;26.34;34.95;101315.94;5060383;28;1975;-20
2023/05/09 01:04:36;;;;;;;;;;;;;;;26.44;34.86;101310.44;5090274;28;1062;-20
2023/05/09 01:07:06;;;;;;;;;;;;;;;26.49;34.70;101309.94;5093777;28;1102;-20
2023/05/09 01:09:31;;;;;;;;;;;;;;;26.41;34.63;101313.44;5063829;28;1796;-20
2023/05/09 01:12:06;;;;;;;;;;;;;;;26.48;34.65;101313.63;5061490;28;1071;-21
2023/05/09 01:14:35;;;;;;;;;;;;;;;26.60;34.31;101319.56;5073852;28;1159;-20
2023/05/09 01:17:04;;;;;;;;;;;;;;;26.41;34.94;101310.75;5078318;28;1076;-21
2023/05/09 01:19:32;;;;;;;;;;;;;;;26.61;34.67;101316.69;5079764;28;1066;-20
2023/05/09 01:21:58;;;;;;;;;;;;;;;26.41;34.54;101311.59;5060318;28;1965;-20
2023/05/09 01:24:27;;;;;;;;;;;;;;;26.43;34.56;101305.19;5066292;28;944;-20
2023/05/09 01:27:02;;;;;;;;;;;;;;;26.46;34.38;101304.88;5060292;28;1348;-20
2023/05/09 01:29:30;;;;;;;;;;;;;;;26.35;34.84;101308.72;5080220;28;1099;-20
2023/05/09 01:31:56;;;;;;;;;;;;;;;26.33;34.62;101305.31;5098122;28;1047;-20
2023/05/09 01:34:21;;;;;;;;;;;;;;;26.37;34.48;101298.63;5065054;28;1054;-20
2023/05/09 01:36:47;;;;;;;;;;;;;;;26.39;34.53;101304.69;5088617;28;1101;-20
2023/05/09 01:39:13;;;;;;;;;;;;;;;26.37;34.58;101298.63;5078018;28;1174;-21
2023/05/09 01:41:38;;;;;;;;;;;;;;;26.33;34.47;101298.09;5069418;28;1914;-20
2023/05/09 01:44:06;;;;;;;;;;;;;;;26.41;34.40;101297.25;5076842;28;1158;-20
2023/05/09 01:46:31;;;;;;;;;;;;;;;26.43;34.37;101297.09;5059974;28;1151;-20
2023/05/09 01:48:57;;;;;;;;;;;;;;;26.42;34.45;101296.25;5090953;28;1022;-20
2023/05/09 01:51:23;;;;;;;;;;;;;;;26.46;34.29;101288.69;5076384;28;1142;-20
2023/05/09 01:53:48;;;;;;;;;;;;;;;26.57;34.01;101288.38;5079739;28;1028;-20
2023/05/09 01:56:14;;;;;;;;;;;;;;;26.46;33.89;101291.38;5062903;28;1347;-20
2023/05/09 01:58:40;;;;;;;;;;;;;;;26.62;33.69;101291.41;5062310;28;1142;-20
2023/05/09 02:01:05;;;;;;;;;;;;;;;26.45;33.73;101295.94;5070480;28;1240;-21
2023/05/09 02:03:32;;;;;;;;;;;;;;;26.39;33.32;101289.34;5075849;28;1902;-21
2023/05/09 02:05:58;;;;;;;;;;;;;;;26.67;33.10;101290.91;5086220;28;1047;-20
2023/05/09 02:08:24;;;;;;;;;;;;;;;26.33;33.54;101300.78;5065500;28;1227;-20
2023/05/09 02:10:50;;;;;;;;;;;;;;;26.42;33.30;101296.25;5072826;28;1146;-20
2023/05/09 02:13:15;;;;;;;;;;;;;;;26.35;33.52;101300.63;5081442;28;1140;-20
2023/05/09 02:15:41;;;;;;;;;;;;;;;26.56;33.19;101292.06;5059007;28;1142;-20
2023/05/09 02:18:06;;;;;;;;;;;;;;;26.28;33.60;101297.69;5076862;28;1166;-20
2023/05/09 02:20:34;;;;;;;;;;;;;;;26.06;33.74;101297.28;5077094;28;1234;-20
2023/05/09 02:23:00;;;;;;;;;;;;;;;26.25;33.40;101298.03;5060038;28;1909;-20
2023/05/09 02:25:26;;;;;;;;;;;;;;;26.33;33.14;101290.00;5059278;28;1230;-20
2023/05/09 02:27:51;;;;;;;;;;;;;;;26.37;33.37;101304.00;5077016;28;1150;-20
2023/05/09 02:30:19;;;;;;;;;;;;;;;26.40;33.30;101299.13;5075234;28;1162;-20
2023/05/09 02:32:45;;;;;;;;;;;;;;;26.35;33.37;101306.88;5058693;28;1206;-20
2023/05/09 02:35:11;;;;;;;;;;;;;;;26.29;33.46;101302.94;5061742;28;1238;-20
2023/05/09 02:37:36;;;;;;;;;;;;;;;26.41;33.71;101316.13;5062808;28;1127;-21
2023/05/09 02:40:04;;;;;;;;;;;;;;;26.49;33.69;101315.34;5062210;28;1300;-21
2023/05/09 02:42:29;;;;;;;;;;;;;;;26.42;33.89;101307.06;5062540;28;1989;-21
2023/05/09 02:44:55;;;;;;;;;;;;;;;26.39;34.08;101313.59;5058732;28;1102;-20
2023/05/09 02:47:21;;;;;;;;;;;;;;;26.38;34.34;101309.22;5059920;28;1130;-20
2023/05/09 02:49:46;;;;;;;;;;;;;;;26.25;34.61;101308.81;5086493;28;1151;-20
2023/05/09 02:52:12;;;;;;;;;;;;;;;26.33;35.01;101308.88;5078125;28;1196;-20
2023/05/09 02:54:38;;;;;;;;;;;;;;;26.31;34.73;101308.16;5068069;28;1290;-20
2023/05/09 02:57:04;;;;;;;;;;;;;;;26.40;35.03;101315.31;5074812;28;1133;-20
2023/05/09 02:59:29;;;;;;;;;;;;;;;26.47;35.24;101309.25;5073572;28;1390;-20
2023/05/09 03:01:58;;;;;;;;;;;;;;;26.61;35.16;101313.19;5078190;28;1914;-20
2023/05/09 03:04:24;;;;;;;;;;;;;;;26.52;35.28;101320.41;5078228;28;1143;-20
2023/05/09 03:06:50;;;;;;;;;;;;;;;26.41;35.72;101318.84;5066676;28;1144;-20
2023/05/09 03:09:16;;;;;;;;;;;;;;;26.40;36.07;101319.84;5086779;28;1078;-20
2023/05/09 03:11:41;;;;;;;;;;;;;;;26.64;35.86;101310.97;5064854;28;1239;-20
2023/05/09 03:14:07;;;;;;;;;;;;;;;26.48;36.54;101317.19;5068350;28;1252;-20
2023/05/09 03:16:33;;;;;;;;;;;;;;;26.50;36.67;101331.34;5079338;28;1224;-20
2023/05/09 03:18:59;;;;;;;;;;;;;;;26.48;36.40;101327.13;5067917;28;1155;-20
2023/05/09 03:21:25;;;;;;;;;;;;;;;26.20;37.01;101335.44;5075788;28;1967;-21
2023/05/09 03:23:50;;;;;;;;;;;;;;;26.47;36.34;101333.53;5084866;28;1035;-20
2023/05/09 03:26:16;;;;;;;;;;;;;;;26.35;35.66;101338.38;5082332;28;1121;-20
2023/05/09 03:28:42;;;;;;;;;;;;;;;26.52;34.97;101347.38;5077956;28;1394;-20
2023/05/09 03:31:08;;;;;;;;;;;;;;;26.34;35.07;101340.22;5083009;28;1106;-20
2023/05/09 03:33:34;;;;;;;;;;;;;;;26.32;34.96;101347.63;5087596;28;1163;-20
2023/05/09 03:36:00;;;;;;;;;;;;;;;26.19;34.91;101353.47;5090429;28;1035;-21
2023/05/09 03:38:26;;;;;;;;;;;;;;;26.08;35.13;101348.34;5069584;28;1363;-20
2023/05/09 03:40:55;;;;;;;;;;;;;;;25.52;30.81;101354.91;5071348;28;1234;-20
2023/05/09 03:43:21;;;;;;;;;;;;;;;24.30;32.46;101358.75;5057435;28;1917;-20
2023/05/09 03:45:46;;;;;;;;;;;;;;;24.52;34.77;101353.97;5091424;28;1026;-20
2023/05/09 03:48:13;;;;;;;;;;;;;;;25.13;32.58;101356.09;5077366;28;1230;-20
2023/05/09 03:50:46;;;;;;;;;;;;;;;25.66;30.65;101345.44;5045384;28;1167;-20
2023/05/09 03:53:13;;;;;;;;;;;;;;;26.03;29.64;101349.69;5068119;28;1496;-19
2023/05/09 03:55:39;;;;;;;;;;;;;;;24.65;30.93;101353.59;5060595;28;1293;-20
2023/05/09 03:58:06;;;;;;;;;;;;;;;24.04;31.14;101352.19;5084827;28;1548;-21
2023/05/09 04:00:34;;;;;;;;;;;;;;;23.96;32.10;101358.28;5063862;28;1292;-21
2023/05/09 04:03:07;;;;;;;;;;;;;;;24.98;30.83;101361.19;5064994;28;1910;-22
2023/05/09 04:05:38;;;;;;;;;;;;;;;24.98;31.08;101370.13;5094614;28;1014;-21
2023/05/09 04:08:05;;;;;;;;;;;;;;;25.21;30.90;101371.50;5074231;28;1335;-22
2023/05/09 04:10:31;;;;;;;;;;;;;;;25.76;31.01;101372.25;5075977;28;1104;-21
2023/05/09 04:12:57;;;;;;;;;;;;;;;25.60;31.54;101375.66;5068880;28;1210;-22
2023/05/09 04:15:23;;;;;;;;;;;;;;;25.38;32.15;101376.03;5066754;28;1158;-22
2023/05/09 04:17:48;;;;;;;;;;;;;;;25.63;31.90;101370.00;5068522;28;1174;-21
2023/05/09 04:20:14;;;;;;;;;;;;;;;26.22;30.57;101384.66;5074881;28;1209;-22
2023/05/09 04:22:41;;;;;;;;;;;;;;;25.02;32.02;101376.91;5061452;28;1901;-25
2023/05/09 04:25:11;;;;;;;;;;;;;;;25.79;31.59;101386.28;5074428;28;1309;-22
2023/05/09 04:27:37;;;;;;;;;;;;;;;26.03;30.96;101387.44;5074334;28;1309;-23
2023/05/09 04:30:04;;;;;;;;;;;;;;;26.14;30.96;101393.56;5067741;28;1368;-23
2023/05/09 04:32:30;;;;;;;;;;;;;;;26.60;30.69;101395.13;5081266;28;1193;-31
2023/05/09 04:34:56;;;;;;;;;;;;;;;26.65;30.28;101395.47;5068000;28;1407;-22
2023/05/09 04:37:25;;;;;;;;;;;;;;;26.38;31.16;101402.78;5080057;28;1276;-22
2023/05/09 04:39:51;;;;;;;;;;;;;;;26.37;31.83;101401.09;5085407;28;1233;-22
2023/05/09 04:42:22;;;;;;;;;;;;;;;26.60;31.00;101406.75;5067961;28;1913;-21
2023/05/09 04:44:48;;;;;;;;;;;;;;;26.35;31.67;101406.66;5061227;28;1190;-21
2023/05/09 04:47:14;;;;;;;;;;;;;;;26.52;31.45;101412.13;5060992;28;1162;-21
2023/05/09 04:49:39;;;;;;;;;;;;;;;26.28;31.19;101409.13;5070708;28;1318;-21
2023/05/09 04:52:05;;;;;;;;;;;;;;;26.64;31.00;101408.09;5092098;28;1134;-22
2023/05/09 04:54:31;;;;;;;;;;;;;;;26.45;31.51;101411.94;5085462;28;1277;-21
2023/05/09 04:56:57;;;;;;;;;;;;;;;26.71;31.27;101416.41;5067910;28;1254;-22
2023/05/09 04:59:23;;;;;;;;;;;;;;;26.65;30.82;101422.47;5060790;28;1616;-22
2023/05/09 05:01:49;;;;;;;;;;;;;;;26.17;32.00;101422.91;5081899;28;1976;-21
2023/05/09 05:04:15;;;;;;;;;;;;;;;26.67;31.40;101423.16;5098503;28;1194;-22
2023/05/09 05:06:41;;;;;;;;;;;;;;;26.37;31.21;101418.16;5075314;28;1230;-22
2023/05/09 05:09:06;;;;;;;;;;;;;;;26.52;31.15;101418.38;5066918;28;1356;-22
2023/05/09 05:11:32;;;;;;;;;;;;;;;26.74;31.20;101417.94;5080332;28;1261;-22
2023/05/09 05:13:58;;;;;;;;;;;;;;;26.90;31.11;101423.38;5071034;28;1137;-22
2023/05/09 05:16:23;;;;;;;;;;;;;;;27.31;30.55;101419.06;5060363;28;1169;-21
2023/05/09 05:18:49;;;;;;;;;;;;;;;27.31;30.67;101424.47;5076541;28;1125;-22
2023/05/09 05:21:16;;;;;;;;;;;;;;;26.94;30.73;101420.34;5076514;28;1466;-22
2023/05/09 05:23:42;;;;;;;;;;;;;;;26.78;31.60;101419.28;5068181;28;1977;-21
2023/05/09 05:26:08;;;;;;;;;;;;;;;27.26;30.71;101413.31;5064659;28;1516;-21
2023/05/09 05:28:35;;;;;;;;;;;;;;;27.13;30.63;101422.78;5060418;28;1178;-21
2023/05/09 05:31:01;;;;;;;;;;;;;;;26.83;31.49;101429.59;5059917;28;1679;-21
2023/05/09 05:33:27;;;;;;;;;;;;;;;27.24;30.69;101434.28;5078127;28;1166;-21
2023/05/09 05:35:53;;;;;;;;;;;;;;;27.13;30.91;101430.03;5078817;28;1142;-21
2023/05/09 05:38:20;;;;;;;;;;;;;;;27.02;31.40;101429.34;5070478;28;1118;-22
2023/05/09 05:40:49;;;;;;;;;;;;;;;27.01;30.47;101424.06;5062601;28;1170;-22
2023/05/09 05:43:15;;;;;;;;;;;;;;;27.08;31.09;101419.72;5079430;28;1963;-21
2023/05/09 05:45:41;;;;;;;;;;;;;;;26.86;31.65;101423.88;5066524;28;1249;-22
2023/05/09 05:48:10;;;;;;;;;;;;;;;27.00;31.64;101427.78;5069477;28;1138;-23
2023/05/09 05:50:36;;;;;;;;;;;;;;;26.96;31.34;101427.25;5062576;28;909;-22
2023/05/09 05:53:02;;;;;;;;;;;;;;;26.78;30.13;101424.69;5059702;28;1218;-22
2023/05/09 05:55:28;;;;;;;;;;;;;;;26.35;30.42;101422.84;5059413;28;1282;-24
2023/05/09 05:57:53;;;;;;;;;;;;;;;26.40;30.57;101422.34;5059544;28;1250;-22
2023/05/09 06:00:19;;;;;;;;;;;;;;;26.53;30.93;101417.34;5059770;28;1118;-23
2023/05/09 06:02:51;;;;;;;;;;;;;;;26.64;31.03;101420.78;5068716;28;1989;-22
2023/05/09 06:05:27;;;;;;;;;;;;;;;26.67;30.87;101422.28;5059221;28;1284;-22
2023/05/09 06:07:53;;;;;;;;;;;;;;;26.87;31.33;101421.00;5075864;28;1229;-22
2023/05/09 06:10:19;;;;;;;;;;;;;;;26.75;31.02;101428.56;5072825;28;1212;-22
2023/05/09 06:12:44;;;;;;;;;;;;;;;26.69;31.51;101429.22;5089403;28;1066;-23
2023/05/09 06:15:10;;;;;;;;;;;;;;;26.35;32.11;101425.53;5073225;28;1058;-27
2023/05/09 06:17:40;;;;;;;;;;;;;;;26.34;32.04;101428.41;5079074;28;1173;-23
2023/05/09 06:20:05;;;;;;;;;;;;;;;26.33;31.96;101427.56;5073386;28;1451;-23
2023/05/09 06:22:31;;;;;;;;;;;;;;;26.31;32.27;101417.91;5059148;28;1967;-24
2023/05/09 06:24:58;;;;;;;;;;;;;;;26.23;32.45;101421.41;5094600;28;1180;-24
2023/05/09 06:27:24;;;;;;;;;;;;;;;26.13;32.43;101422.38;5085739;28;1065;-24
2023/05/09 06:29:51;;;;;;;;;;;;;;;26.23;32.45;101421.41;5094035;28;1109;-24
2023/05/09 06:32:17;;;;;;;;;;;;;;;26.15;32.52;101422.22;5085417;28;1169;-22
2023/05/09 06:34:43;;;;;;;;;;;;;;;26.12;32.62;101427.91;5094852;28;1089;-29
2023/05/09 06:37:08;;;;;;;;;;;;;;;26.05;32.71;101427.72;5090385;28;1033;-26
2023/05/09 06:39:34;;;;;;;;;;;;;;;26.01;33.03;101429.03;5078676;28;1077;-24
2023/05/09 06:41:59;;;;;;;;;;;;;;;26.09;32.35;101437.16;5077279;28;1988;-24
2023/05/09 06:44:31;;;;;;;;;;;;;;;26.08;32.43;101430.09;5059040;28;1159;-25
2023/05/09 06:46:57;;;;;;;;;;;;;;;26.26;32.08;101426.47;5076522;28;1138;-23
2023/05/09 06:49:22;;;;;;;;;;;;;;;26.22;32.50;101419.72;5089195;28;1119;-24
2023/05/09 06:51:48;;;;;;;;;;;;;;;26.23;32.40;101422.25;5076521;28;1181;-24
2023/05/09 06:54:13;;;;;;;;;;;;;;;26.29;32.19;101420.78;5077023;28;1186;-23
2023/05/09 06:56:39;;;;;;;;;;;;;;;26.22;32.52;101417.03;5088845;28;1110;-23
2023/05/09 06:59:04;;;;;;;;;;;;;;;26.18;32.49;101416.50;5082990;28;1217;-24
2023/05/09 07:01:30;;;;;;;;;;;;;;;26.27;32.26;101425.47;5084090;28;1993;-24
2023/05/09 07:03:57;;;;;;;;;;;;;;;26.22;32.77;101419.72;5081948;28;1154;-24
2023/05/09 07:06:22;;;;;;;;;;;;;;;26.23;32.42;101416.00;5089669;28;1061;-25
2023/05/09 07:08:48;;;;;;;;;;;;;;;26.26;32.78;101412.97;5078975;28;1186;-24
2023/05/09 07:11:13;;;;;;;;;;;;;;;26.34;32.49;101407.66;5096532;28;1137;-24
2023/05/09 07:13:39;;;;;;;;;;;;;;;26.27;32.71;101404.75;5077945;28;1217;-27
2023/05/09 07:16:05;;;;;;;;;;;;;;;26.15;32.80;101395.25;5076069;28;1173;-26
2023/05/09 07:18:30;;;;;;;;;;;;;;;26.39;32.77;101399.94;5095351;28;1003;-28
2023/05/09 07:20:56;;;;;;;;;;;;;;;26.34;32.79;101401.44;5083723;28;1031;-26
2023/05/09 07:23:21;;;;;;;;;;;;;;;26.17;33.37;101401.31;5081619;28;1975;-24
2023/05/09 07:25:47;;;;;;;;;;;;;;;26.38;32.90;101400.09;5091346;28;1133;-26
2023/05/09 07:28:13;;;;;;;;;;;;;;;26.24;33.20;101394.25;5077605;28;1224;-27
2023/05/09 07:30:38;;;;;;;;;;;;;;;26.12;33.61;101399.13;5087969;28;1070;-26
2023/05/09 07:33:04;;;;;;;;;;;;;;;26.25;32.63;101411.31;5096454;28;1193;-24
2023/05/09 07:35:29;;;;;;;;;;;;;;;26.18;32.25;101400.31;5096384;28;1181;-25
2023/05/09 07:37:55;;;;;;;;;;;;;;;26.46;31.55;101410.91;5090933;28;1150;-25
2023/05/09 07:40:20;;;;;;;;;;;;;;;26.71;31.22;101415.56;5076768;28;1039;-24
2023/05/09 07:42:48;;;;;;;;;;;;;;;26.02;32.38;101419.94;5085302;28;1979;-25
2023/05/09 07:45:17;;;;;;;;;;;;;;;25.60;33.80;101424.16;5088402;28;1089;-23
2023/05/09 07:47:42;;;;;;;;;;;;;;;25.80;33.04;101422.16;5099731;28;1077;-22
2023/05/09 07:50:08;;;;;;;;;;;;;;;26.64;31.38;101428.88;5082091;28;1180;-23
2023/05/09 07:52:33;;;;;;;;;;;;;;;26.06;33.13;101431.25;5086218;28;1128;-23
2023/05/09 07:54:59;;;;;;;;;;;;;;;25.72;34.41;101435.56;5100480;28;1038;-22
2023/05/09 07:57:24;;;;;;;;;;;;;;;25.93;34.39;101432.53;5081517;28;1181;-26
2023/05/09 07:59:50;;;;;;;;;;;;;;;26.06;33.85;101431.25;5079801;28;1066;-23
2023/05/09 08:02:16;;;;;;;;;;;;;;;26.07;33.67;101431.09;5093123;28;1901;-24
2023/05/09 08:04:41;;;;;;;;;;;;;;;26.07;33.62;101431.09;5091670;28;1126;-22
2023/05/09 08:07:07;;;;;;;;;;;;;;;26.08;34.09;101429.22;5088080;28;1015;-22
2023/05/09 08:09:33;;;;;;;;;;;;;;;26.14;33.82;101428.63;5091530;28;1090;-22
2023/05/09 08:11:59;;;;;;;;;;;;;;;25.95;34.28;101424.28;5086512;28;1054;-25
2023/05/09 08:14:24;;;;;;;;;;;;;;;26.05;34.18;101419.63;5097357;28;1051;-24
2023/05/09 08:16:50;;;;;;;;;;;;;;;26.09;34.01;101422.84;5081053;28;1479;-22
2023/05/09 08:19:16;;;;;;;;;;;;;;;26.49;33.28;101423.25;5079563;28;1123;-24
2023/05/09 08:21:41;;;;;;;;;;;;;;;26.50;33.25;101420.38;5079577;28;1902;-25
2023/05/09 08:24:08;;;;;;;;;;;;;;;26.50;33.25;101417.69;5079807;28;1189;-23
2023/05/09 08:26:34;;;;;;;;;;;;;;;26.06;34.04;101424.00;5092633;28;1054;-22
2023/05/09 08:29:00;;;;;;;;;;;;;;;26.19;33.87;101425.44;5090980;28;1137;-24
2023/05/09 08:31:26;;;;;;;;;;;;;;;26.25;31.22;101422.09;5081104;28;1023;-23
2023/05/09 08:33:51;;;;;;;;;;;;;;;26.25;32.12;101428.34;5079447;28;1054;-23
2023/05/09 08:36:17;;;;;;;;;;;;;;;26.63;31.89;101433.41;5078951;28;1178;-23
2023/05/09 08:38:42;;;;;;;;;;;;;;;26.64;31.75;101432.41;5089457;28;1193;-23
2023/05/09 08:41:08;;;;;;;;;;;;;;;25.99;32.93;101431.06;5080729;28;1233;-23
2023/05/09 08:43:34;;;;;;;;;;;;;;;25.39;34.22;101428.06;5091100;28;1921;-24
2023/05/09 08:46:00;;;;;;;;;;;;;;;25.61;33.88;101426.69;5080839;28;1126;-26
2023/05/09 08:48:26;;;;;;;;;;;;;;;26.44;31.99;101425.59;5090873;28;1078;-24
2023/05/09 08:50:52;;;;;;;;;;;;;;;26.10;32.98;101425.38;5093413;28;1217;-26
2023/05/09 08:53:18;;;;;;;;;;;;;;;25.76;33.53;101426.16;5086373;28;1184;-23
2023/05/09 08:55:43;;;;;;;;;;;;;;;25.64;33.66;101421.03;5080998;28;1300;-25
2023/05/09 08:58:09;;;;;;;;;;;;;;;25.84;33.17;101415.44;5087551;28;1077;-25
2023/05/09 09:00:35;;;;;;;;;;;;;;;26.67;31.67;101420.44;5097268;28;1020;-26
2023/05/09 09:03:02;;;;;;;;;;;;;;;26.15;32.64;101406.88;5087031;28;1980;-24
2023/05/09 09:05:28;;;;;;;;;;;;;;;25.90;33.41;101412.13;5097029;28;1435;-24
2023/05/09 09:07:53;;;;;;;;;;;;;;;25.84;33.47;101409.22;5092680;28;1150;-25
2023/05/09 09:10:20;;;;;;;;;;;;;;;25.80;33.66;101411.38;5098719;28;1038;-24
2023/05/09 09:12:46;;;;;;;;;;;;;;;26.39;31.71;101399.94;5098874;28;1066;-23
2023/05/09 09:15:13;;;;;;;;;;;;;;;26.18;32.57;101405.69;5086515;28;1525;-22
2023/05/09 09:17:40;;;;;;;;;;;;;;;25.96;33.11;101399.84;5080777;28;1223;-23
2023/05/09 09:20:06;;;;;;;;;;;;;;;26.22;33.53;101399.00;5085254;28;1218;-22
2023/05/09 09:22:32;;;;;;;;;;;;;;;26.70;32.58;101401.22;5098624;28;1980;-23
2023/05/09 09:25:01;;;;;;;;;;;;;;;26.38;32.85;101387.47;5080625;28;1190;-24
2023/05/09 09:27:27;;;;;;;;;;;;;;;26.68;32.19;101395.13;5085810;28;843;-24
2023/05/09 09:29:52;;;;;;;;;;;;;;;26.56;32.52;101396.47;5065922;28;1151;-22
2023/05/09 09:32:18;;;;;;;;;;;;;;;26.23;33.23;101399.81;5086275;28;1003;-24
2023/05/09 09:34:48;;;;;;;;;;;;;;;26.39;32.67;101397.22;5091655;28;1519;-25
2023/05/09 09:37:22;;;;;;;;;;;;;;;26.03;33.08;101390.13;5090705;28;1227;-22
2023/05/09 09:39:54;;;;;;;;;;;;;;;26.20;33.12;101392.06;5086120;28;892;-22
2023/05/09 09:42:22;;;;;;;;;;;;;;;26.10;33.52;101392.19;5092862;28;1914;-22
2023/05/09 09:45:08;;;;;;;;;;;;;;;26.53;33.07;101389.53;5096950;28;853;-23
2023/05/09 09:47:33;;;;;;;;;;;;;;;26.58;32.82;101392.59;5080358;28;1077;-22
2023/05/09 09:50:03;;;;;;;;;;;;;;;26.72;32.93;101396.53;5077908;28;1119;-22
2023/05/09 09:52:29;;;;;;;;;;;;;;;26.74;32.57;101393.66;5071825;28;1377;-22
2023/05/09 09:54:55;;;;;;;;;;;;;;;26.92;32.56;101393.53;5087025;28;1098;-24
2023/05/09 09:57:35;;;;;;;;;;;;;;;26.84;32.85;101396.19;5095107;28;1021;-25
2023/05/09 10:00:00;;;;;;;;;;;;;;;26.88;32.66;101403.78;5088944;28;1047;-22
2023/05/09 10:02:26;;;;;;;;;;;;;;;27.19;32.41;101409.63;5083722;28;1960;-25
2023/05/09 10:04:51;;;;;;;;;;;;;;;26.75;32.74;101403.41;5097322;28;1113;-22
2023/05/09 10:07:17;;;;;;;;;;;;;;;26.87;32.95;101403.97;5079813;28;1015;-22
2023/05/09 10:09:44;;;;;;;;;;;;;;;27.03;32.36;101408.56;5077283;28;1060;-21
2023/05/09 10:12:09;;;;;;;;;;;;;;;26.78;32.39;101417.44;5091172;28;1082;-21
2023/05/09 10:14:36;;;;;;;;;;;;;;;26.71;32.65;101420.97;5076085;28;1094;-22
2023/05/09 10:17:02;;;;;;;;;;;;;;;26.84;32.59;101418.63;5076382;28;1249;-24
2023/05/09 10:19:28;;;;;;;;;;;;;;;26.59;32.47;101426.63;5086355;28;1086;-22
2023/05/09 10:21:54;;;;;;;;;;;;;;;26.46;32.86;101427.09;5076836;28;1972;-26
2023/05/09 10:24:39;;;;;;;;;;;;;;;26.60;32.26;101425.66;5076116;28;1173;-21
2023/05/09 10:27:11;;;;;;;;;;;;;;;27.10;32.40;101423.09;5083470;28;1134;-25
2023/05/09 10:29:37;;;;;;;;;;;;;;;27.26;32.20;101427.66;5079785;28;1197;-23
2023/05/09 10:32:22;;;;;;;;;;;;;;;27.04;32.38;101421.09;5070070;28;1063;-24
2023/05/09 10:34:48;;;;;;;;;;;;;;;26.92;32.29;101419.66;5090898;28;1089;-23
2023/05/09 10:37:14;;;;;;;;;;;;;;;26.73;32.82;101421.63;5090352;28;1106;-22
2023/05/09 10:39:40;;;;;;;;;;;;;;;26.28;33.55;101422.63;5080551;28;849;-23
2023/05/09 10:42:06;;;;;;;;;;;;;;;26.26;33.79;101421.06;5089278;28;1898;-22
2023/05/09 10:44:31;;;;;;;;;;;;;;;26.39;33.57;101418.81;5090368;28;1110;-23
2023/05/09 10:46:57;;;;;;;;;;;;;;;26.67;32.97;101412.34;5079560;28;1063;-21
2023/05/09 10:49:22;;;;;;;;;;;;;;;26.76;32.76;101411.34;5065425;28;1194;-22
2023/05/09 10:51:48;;;;;;;;;;;;;;;27.08;32.70;101408.91;5093796;28;1058;-22
2023/05/09 10:54:15;;;;;;;;;;;;;;;26.97;32.82;101403.81;5083616;28;1182;-22
2023/05/09 10:56:40;;;;;;;;;;;;;;;26.28;33.40;101403.75;5096508;28;1206;-23
2023/05/09 10:59:06;;;;;;;;;;;;;;;26.09;33.90;101412.06;5065728;28;1083;-23
2023/05/09 11:01:33;;;;;;;;;;;;;;;26.54;32.83;101412.81;5065559;28;1280;-22
2023/05/09 11:03:59;;;;;;;;;;;;;;;26.49;33.10;101415.16;5080641;28;1167;-21
2023/05/09 11:06:47;;;;;;;;;;;;;;;25.99;33.86;101409.50;5076497;28;1142;-25
2023/05/09 11:09:31;;;;;;;;;;;;;;;25.75;34.32;101413.69;5097094;28;1082;-22
2023/05/09 11:11:58;;;;;;;;;;;;;;;26.33;33.27;101415.91;5083399;28;1157;-22
2023/05/09 11:14:31;;;;;;;;;;;;;;;26.61;32.64;101415.72;5084185;28;1221;-24
2023/05/09 11:16:57;;;;;;;;;;;;;;;26.38;33.33;101408.19;5087901;28;1055;-22
2023/05/09 11:19:52;;;;;;;;;;;;;;;26.80;32.05;101408.31;5085388;28;1474;-22
2023/05/09 11:22:21;;;;;;;;;;;;;;;27.11;31.97;101415.84;5067984;28;1963;-25
2023/05/09 11:24:47;;;;;;;;;;;;;;;27.01;32.03;101418.66;5080059;28;1145;-26
2023/05/09 11:27:14;;;;;;;;;;;;;;;26.84;32.39;101417.78;5085165;28;1062;-22
2023/05/09 11:29:44;;;;;;;;;;;;;;;26.68;32.02;101421.28;5093268;28;1078;-26
2023/05/09 11:32:09;;;;;;;;;;;;;;;27.39;31.55;101427.16;5067611;28;1225;-22
2023/05/09 11:34:36;;;;;;;;;;;;;;;27.21;31.83;101434.59;5074283;28;1164;-22
2023/05/09 11:37:11;;;;;;;;;;;;;;;27.59;31.11;101434.09;5087454;28;1086;-23
2023/05/09 11:39:56;;;;;;;;;;;;;;;26.90;31.74;101425.22;5082259;28;1089;-22
2023/05/09 11:42:27;;;;;;;;;;;;;;;26.80;32.13;101428.06;5082861;28;1902;-21
2023/05/09 11:44:53;;;;;;;;;;;;;;;27.16;31.77;101429.69;5086935;28;1138;-24
2023/05/09 11:47:19;;;;;;;;;;;;;;;27.33;31.14;101424.28;5091987;28;1112;-25
2023/05/09 11:49:45;;;;;;;;;;;;;;;27.08;31.85;101430.53;5086810;28;1146;-21
2023/05/09 11:52:10;;;;;;;;;;;;;;;26.86;32.14;101430.09;5085906;28;1151;-24
2023/05/09 11:54:39;;;;;;;;;;;;;;;27.20;31.75;101435.59;5096319;28;1153;-22
2023/05/09 11:57:05;;;;;;;;;;;;;;;27.16;31.78;101426.97;5080197;28;1094;-22
2023/05/09 11:59:32;;;;;;;;;;;;;;;27.26;31.59;101433.06;5075994;28;1127;-25
2023/05/09 12:02:01;;;;;;;;;;;;;;;26.87;32.36;101433.66;5092433;28;1902;-22
2023/05/09 12:04:27;;;;;;;;;;;;;;;26.45;33.40;101425.41;5085527;28;836;-26
2023/05/09 12:06:53;;;;;;;;;;;;;;;26.86;32.26;101432.81;5089847;28;1152;-25
2023/05/09 12:09:19;;;;;;;;;;;;;;;26.86;32.53;101422.00;5085632;28;1178;-23
2023/05/09 12:11:48;;;;;;;;;;;;;;;26.72;32.52;101423.50;5082190;28;1232;-23
2023/05/09 12:14:25;;;;;;;;;;;;;;;26.63;32.63;101411.81;5096384;28;1110;-23
2023/05/09 12:16:50;;;;;;;;;;;;;;;26.50;33.11;101417.69;5082272;28;1211;-24
2023/05/09 12:19:17;;;;;;;;;;;;;;;26.41;33.25;101415.94;5083356;28;1066;-22
2023/05/09 12:21:42;;;;;;;;;;;;;;;26.62;32.76;101412.84;5075717;28;1894;-22
2023/05/09 12:24:08;;;;;;;;;;;;;;;27.39;31.54;101416.34;5075632;28;1129;-27
2023/05/09 12:26:33;;;;;;;;;;;;;;;27.31;31.25;101413.66;5089005;28;1046;-25
2023/05/09 12:28:59;;;;;;;;;;;;;;;27.34;30.85;101407.91;5085499;28;919;-22
2023/05/09 12:31:24;;;;;;;;;;;;;;;27.24;31.45;101407.25;5081504;28;1058;-29
2023/05/09 12:33:50;;;;;;;;;;;;;;;27.13;31.96;101405.72;5073696;28;1031;-22
2023/05/09 12:36:15;;;;;;;;;;;;;;;27.24;31.28;101408.09;5080881;28;1129;-23
2023/05/09 12:38:50;;;;;;;;;;;;;;;27.32;31.55;101403.72;5079516;28;1225;-29
2023/05/09 12:41:17;;;;;;;;;;;;;;;27.49;31.54;101413.50;5078962;28;865;-23
2023/05/09 12:43:45;;;;;;;;;;;;;;;27.06;32.40;101410.94;5088338;28;1917;-22
2023/05/09 12:46:11;;;;;;;;;;;;;;;26.34;33.59;101414.94;5065504;28;1133;-26